Time;durP1;ratioP1;P1;durP2;ratioP2;P2;SDS_P1;SDS_P2;PMS_P1;PMS_P2;Temp;Humidity;BMP_temperature;BMP_pressure;BME280_temperature;BME280_humidity;BME280_pressure;Samples;Min_cycle;Max_cycle;Signal;HPM_P1;HPM_P2
2021/11/01 00:00:14;;;;;;;25.83;21.15;;;;;;;9.64;72.81;99307.97;4991175;28;20053;-75
2021/11/01 00:02:41;;;;;;;27.30;20.90;;;;;;;9.62;72.80;99307.13;4991103;28;20072;-75
2021/11/01 00:05:07;;;;;;;27.02;21.25;;;;;;;9.62;73.09;99296.59;4994314;28;20042;-75
2021/11/01 00:07:33;;;;;;;27.95;21.33;;;;;;;9.62;72.76;99295.72;4992528;28;20085;-75
2021/11/01 00:09:58;;;;;;;31.20;23.13;;;;;;;9.59;73.32;99293.16;4991164;28;20038;-75
2021/11/01 00:12:28;;;;;;;26.45;21.08;;;;;;;9.60;73.31;99290.47;4991807;28;20034;-75
2021/11/01 00:14:54;;;;;;;26.50;20.85;;;;;;;9.60;73.97;99285.22;4994713;28;20034;-75
2021/11/01 00:17:19;;;;;;;28.83;23.92;;;;;;;9.63;73.11;99284.28;4994801;28;20046;-75
2021/11/01 00:19:44;;;;;;;28.20;22.13;;;;;;;9.64;73.63;99276.34;4994668;28;20097;-75
2021/11/01 00:22:10;;;;;;;28.98;21.58;;;;;;;9.68;73.57;99277.13;4994580;28;20125;-75
2021/11/01 00:24:35;;;;;;;29.98;23.25;;;;;;;9.66;73.21;99276.28;4994280;28;20078;-75
2021/11/01 00:27:00;;;;;;;24.75;21.52;;;;;;;9.67;73.46;99280.69;5000851;28;20038;-76
2021/11/01 00:29:26;;;;;;;25.75;21.55;;;;;;;9.66;73.67;99276.28;4997616;28;20034;-75
2021/11/01 00:31:51;;;;;;;25.52;20.35;;;;;;;9.63;72.95;99276.38;4994403;28;20554;-75
2021/11/01 00:34:17;;;;;;;27.10;21.50;;;;;;;9.61;73.30;99276.38;4977077;28;20061;-76
2021/11/01 00:36:42;;;;;;;28.88;21.35;;;;;;;9.60;73.61;99276.44;4994370;28;20128;-76
2021/11/01 00:39:07;;;;;;;26.33;20.60;;;;;;;9.59;73.78;99277.34;4994369;28;20125;-75
2021/11/01 00:41:33;;;;;;;27.15;20.60;;;;;;;9.58;73.51;99273.81;4994179;28;20030;-75
2021/11/01 00:43:59;;;;;;;28.73;22.05;;;;;;;9.57;73.62;99279.16;4994015;28;20035;-76
2021/11/01 00:46:25;;;;;;;26.35;21.13;;;;;;;9.57;73.25;99276.53;4976769;28;20046;-75
2021/11/01 00:48:51;;;;;;;28.35;22.92;;;;;;;9.55;73.90;99275.69;4994210;28;20374;-76
2021/11/01 00:51:16;;;;;;;28.60;21.50;;;;;;;9.53;73.81;99275.69;4993956;28;20053;-75
2021/11/01 00:53:47;;;;;;;29.55;22.30;;;;;;;9.52;73.36;99279.25;4994334;28;20045;-75
2021/11/01 00:56:13;;;;;;;25.92;20.60;;;;;;;9.51;73.30;99279.25;4993989;28;20080;-75
2021/11/01 00:58:39;;;;;;;27.38;22.10;;;;;;;9.49;73.07;99283.72;4997278;28;20062;-75
2021/11/01 01:01:04;;;;;;;26.50;20.83;;;;;;;9.48;73.48;99276.69;5001010;28;20033;-75
2021/11/01 01:03:31;;;;;;;27.40;22.88;;;;;;;9.45;73.81;99269.72;4993689;28;20042;-75
2021/11/01 01:05:58;;;;;;;32.58;23.83;;;;;;;9.43;73.44;99267.16;4993395;28;20504;-75
2021/11/01 01:08:23;;;;;;;27.58;21.92;;;;;;;9.43;73.72;99266.25;4993485;28;20520;-75
2021/11/01 01:10:49;;;;;;;26.73;21.17;;;;;;;9.40;74.10;99261.06;4993644;28;20030;-75
2021/11/01 01:13:17;;;;;;;26.30;21.52;;;;;;;9.39;74.01;99259.34;4993525;28;20133;-76
2021/11/01 01:15:51;;;;;;;29.00;21.77;;;;;;;9.37;73.84;99254.09;4993633;28;20034;-76
2021/11/01 01:18:21;;;;;;;29.05;21.90;;;;;;;9.37;73.83;99246.19;4972745;28;20490;-75
2021/11/01 01:20:46;;;;;;;28.05;22.52;;;;;;;9.37;74.21;99245.34;4990054;28;20045;-75
2021/11/01 01:23:12;;;;;;;29.65;23.02;;;;;;;9.35;73.88;99242.75;4993006;28;20038;-75
2021/11/01 01:25:47;;;;;;;30.20;22.42;;;;;;;9.37;74.10;99245.34;4975014;28;20034;-75
2021/11/01 01:28:14;;;;;;;26.73;21.80;;;;;;;9.38;74.34;99244.47;4990398;28;20034;-75
2021/11/01 01:30:40;;;;;;;26.98;21.42;;;;;;;9.37;74.67;99240.06;4993347;28;20041;-75
2021/11/01 01:33:10;;;;;;;29.02;23.23;;;;;;;9.38;74.15;99241.81;4993159;28;20042;-76
2021/11/01 01:35:39;;;;;;;27.75;20.80;;;;;;;9.39;74.37;99243.53;4989970;28;20030;-76
2021/11/01 01:38:05;;;;;;;28.98;22.27;;;;;;;9.37;73.95;99234.81;4992828;28;20042;-75
2021/11/01 01:40:31;;;;;;;29.50;23.00;;;;;;;9.35;74.40;99220.81;4993022;28;20092;-76
2021/11/01 01:42:56;;;;;;;28.73;23.27;;;;;;;9.33;74.54;99227.91;4992669;28;20033;-76
2021/11/01 01:45:21;;;;;;;36.80;23.33;;;;;;;9.31;74.48;99225.28;4992984;28;20038;-75
2021/11/01 01:47:47;;;;;;;29.30;23.08;;;;;;;9.33;74.67;99222.63;4993105;28;20141;-75
2021/11/01 01:50:14;;;;;;;28.05;21.67;;;;;;;9.33;74.53;99215.59;4989989;28;20512;-76
2021/11/01 01:52:41;;;;;;;27.02;21.15;;;;;;;9.31;74.60;99227.06;4992782;28;20046;-76
2021/11/01 01:55:10;;;;;;;30.13;22.33;;;;;;;9.31;74.72;99216.53;4992986;28;20408;-75
2021/11/01 01:57:35;;;;;;;26.77;21.05;;;;;;;9.31;74.43;99224.41;4992962;28;20460;-75
2021/11/01 02:00:01;;;;;;;27.58;22.40;;;;;;;9.29;74.33;99219.19;4992781;28;20093;-75
2021/11/01 02:02:26;;;;;;;27.73;21.80;;;;;;;9.28;74.81;99213.97;4992627;28;20048;-76
2021/11/01 02:04:52;;;;;;;28.08;22.02;;;;;;;9.28;75.11;99213.97;4992486;28;20096;-76
2021/11/01 02:07:59;;;;;;;28.73;22.45;;;;;;;9.28;75.17;99219.22;4992679;28;20072;-75
2021/11/01 02:10:33;;;;;;;30.20;23.85;;;;;;;9.26;75.02;99213.13;4991573;28;20408;-75
2021/11/01 02:13:05;;;;;;;30.42;24.23;;;;;;;9.22;75.03;99212.31;4992365;28;20096;-75
2021/11/01 02:15:36;;;;;;;28.33;22.47;;;;;;;9.19;74.73;99215.88;4988839;28;20038;-75
2021/11/01 02:18:02;;;;;;;31.45;22.15;;;;;;;9.17;75.09;99212.44;4989308;28;20126;-75
2021/11/01 02:20:48;;;;;;;28.05;22.40;;;;;;;9.14;75.56;99212.50;4992367;28;20095;-75
2021/11/01 02:23:25;;;;;;;28.98;22.48;;;;;;;9.13;75.28;99209.88;4992233;28;20125;-75
2021/11/01 02:25:57;;;;;;;27.63;20.98;;;;;;;9.11;75.70;99203.78;4988368;28;20048;-75
2021/11/01 02:28:25;;;;;;;29.17;22.75;;;;;;;9.09;75.49;99205.56;4989002;28;20042;-75
2021/11/01 02:30:52;;;;;;;30.80;22.77;;;;;;;9.02;75.04;99202.22;4992227;28;20081;-75
2021/11/01 02:33:19;;;;;;;29.70;22.42;;;;;;;8.94;75.83;99198.88;4992473;28;20062;-75
2021/11/01 02:35:45;;;;;;;28.98;23.40;;;;;;;8.90;75.59;99202.47;4991927;28;20069;-75
2021/11/01 02:38:21;;;;;;;24.58;20.88;;;;;;;8.84;75.36;99198.19;4988352;28;20158;-75
2021/11/01 02:40:46;;;;;;;28.55;23.33;;;;;;;8.81;76.32;99203.53;4989238;28;20037;-75
2021/11/01 02:43:14;;;;;;;27.33;22.63;;;;;;;8.80;75.96;99200.91;4992115;28;20425;-75
2021/11/01 02:45:39;;;;;;;28.50;22.20;;;;;;;8.72;75.74;99194.06;4992445;28;20109;-75
2021/11/01 02:48:05;;;;;;;28.30;22.42;;;;;;;8.64;75.79;99195.97;4992075;28;20563;-75
2021/11/01 02:50:31;;;;;;;31.15;23.13;;;;;;;8.61;76.15;99200.41;4990810;28;20030;-75
2021/11/01 02:52:57;;;;;;;27.27;21.67;;;;;;;8.54;76.95;99190.03;4981104;28;20162;-75
2021/11/01 02:55:23;;;;;;;30.02;24.15;;;;;;;8.53;76.81;99188.28;4991934;28;20062;-75
2021/11/01 02:57:49;;;;;;;29.63;22.60;;;;;;;8.51;76.35;99183.94;4991883;28;20041;-75
2021/11/01 03:00:21;;;;;;;30.48;24.55;;;;;;;8.47;76.71;99188.41;4990606;28;20026;-75
2021/11/01 03:02:49;;;;;;;29.52;22.70;;;;;;;8.45;76.54;99189.34;4991147;28;20062;-75
2021/11/01 03:05:17;;;;;;;27.10;20.92;;;;;;;8.40;76.42;99193.81;4991680;28;20378;-75
2021/11/01 03:07:44;;;;;;;27.63;22.58;;;;;;;8.33;76.67;99190.38;4991814;28;20042;-75
2021/11/01 03:10:11;;;;;;;29.17;21.77;;;;;;;8.30;76.46;99188.66;4991783;28;20049;-76
2021/11/01 03:12:39;;;;;;;29.90;24.85;;;;;;;8.28;77.04;99192.25;4991551;28;20031;-76
2021/11/01 03:15:06;;;;;;;29.42;23.17;;;;;;;8.25;77.50;99181.78;4991740;28;20073;-75
2021/11/01 03:17:46;;;;;;;31.70;23.27;;;;;;;8.22;77.17;99185.31;4991637;28;20134;-76
2021/11/01 03:20:14;;;;;;;31.13;23.65;;;;;;;8.18;77.33;99186.28;4963261;28;20039;-75
2021/11/01 03:22:48;;;;;;;28.58;23.13;;;;;;;8.17;77.70;99200.31;4991462;28;20121;-75
2021/11/01 03:25:20;;;;;;;30.60;23.65;;;;;;;8.12;77.78;99195.16;4991653;28;20089;-75
2021/11/01 03:27:49;;;;;;;28.63;22.10;;;;;;;8.06;78.00;99203.13;4991662;28;20034;-75
2021/11/01 03:30:15;;;;;;;30.70;23.20;;;;;;;7.99;77.94;99190.09;4991523;28;20092;-75
2021/11/01 03:32:42;;;;;;;29.08;22.83;;;;;;;7.95;78.38;99191.94;4991600;28;20041;-75
2021/11/01 03:35:09;;;;;;;28.63;22.17;;;;;;;7.93;78.97;99187.59;4991611;28;20034;-75
2021/11/01 03:37:36;;;;;;;32.03;26.08;;;;;;;7.96;79.25;99196.28;4991610;28;20038;-75
2021/11/01 03:40:03;;;;;;;28.98;23.63;;;;;;;7.94;78.98;99202.44;4991539;28;20033;-75
2021/11/01 03:42:28;;;;;;;32.45;24.75;;;;;;;7.87;78.90;99193.81;4991376;28;20046;-75
2021/11/01 03:45:01;;;;;;;30.17;22.90;;;;;;;7.84;78.89;99196.50;4991324;28;20124;-75
2021/11/01 03:47:29;;;;;;;;;;;;;;;7.77;79.87;99202.75;4992709;28;20045;-75
2021/11/01 03:50:02;;;;;;;33.25;24.38;;;;;;;7.76;78.85;99196.63;4995144;28;19952;-75
2021/11/01 03:52:33;;;;;;;30.75;24.77;;;;;;;7.72;78.89;99202.81;5055659;22;20042;-78
2021/11/01 03:55:01;;;;;;;28.67;22.73;;;;;;;7.65;78.71;99201.16;5005121;28;20034;-79
2021/11/01 03:57:27;;;;;;;32.17;25.25;;;;;;;7.59;79.02;99199.50;5007444;28;20057;-78
2021/11/01 03:59:53;;;;;;;29.20;22.85;;;;;;;7.56;79.42;99190.81;5005676;28;20042;-78
2021/11/01 04:02:21;;;;;;;37.33;25.80;;;;;;;7.54;79.31;99193.47;5012845;28;20118;-78
2021/11/01 04:04:49;;;;;;;29.48;23.15;;;;;;;7.56;79.77;99198.69;4978549;28;20106;-79
2021/11/01 04:07:15;;;;;;;31.83;24.73;;;;;;;7.56;79.73;99199.56;4980320;28;20070;-79
2021/11/01 04:09:40;;;;;;;33.42;24.08;;;;;;;7.53;79.09;99201.38;4979510;28;20062;-79
2021/11/01 04:12:06;;;;;;;31.40;23.67;;;;;;;7.52;79.10;99204.88;4963482;28;20042;-79
2021/11/01 04:14:39;;;;;;;31.73;25.35;;;;;;;7.47;79.49;99204.97;4979024;28;20035;-78
2021/11/01 04:17:11;;;;;;;32.55;24.85;;;;;;;7.43;79.92;99204.13;4988664;28;20141;-78
2021/11/01 04:19:46;;;;;;;33.58;26.10;;;;;;;7.40;79.86;99214.66;4998397;28;20026;-79
2021/11/01 04:22:13;;;;;;;32.58;25.83;;;;;;;7.43;80.26;99213.75;4983779;28;20449;-78
2021/11/01 04:24:40;;;;;;;31.15;22.95;;;;;;;7.38;79.67;99216.44;4991601;28;20058;-79
2021/11/01 04:27:05;;;;;;;33.30;24.73;;;;;;;7.33;79.87;99217.41;4990781;28;20039;-78
2021/11/01 04:29:33;;;;;;;32.83;24.08;;;;;;;7.37;80.52;99216.47;4987319;28;20035;-78
2021/11/01 04:32:25;;;;;;;32.65;24.95;;;;;;;7.39;79.66;99217.34;4986391;28;20040;-79
2021/11/01 04:34:57;;;;;;;32.42;23.63;;;;;;;7.36;80.08;99222.59;4978803;28;20070;-79
2021/11/01 04:37:23;;;;;;;29.75;24.00;;;;;;;7.37;79.81;99225.22;4988493;28;20047;-79
2021/11/01 04:40:02;;;;;;;31.95;24.50;;;;;;;7.36;79.36;99226.13;4988454;28;20039;-79
2021/11/01 04:42:48;;;;;;;32.95;25.13;;;;;;;7.36;79.07;99227.84;4980867;28;20038;-78
2021/11/01 04:53:27;;;;;;;33.30;25.58;;;;;;;7.37;79.38;99222.59;4982453;28;20041;-78
2021/11/01 04:55:53;;;;;;;35.35;24.70;;;;;;;7.33;79.16;99228.75;4982899;28;20039;-78
2021/11/01 04:58:19;;;;;;;30.33;23.13;;;;;;;7.30;79.13;99230.56;4973301;28;20085;-77
2021/11/01 05:00:46;;;;;;;32.75;24.20;;;;;;;7.29;79.54;99223.59;4982163;28;20457;-78
2021/11/01 05:03:25;;;;;;;30.85;22.77;;;;;;;7.28;79.81;99222.72;4971462;28;20099;-78
2021/11/01 05:05:51;;;;;;;32.05;24.23;;;;;;;7.33;80.95;99234.00;4969549;28;20031;-78
2021/11/01 05:08:17;;;;;;;34.60;25.88;;;;;;;7.40;80.30;99232.19;4983151;28;20105;-78
2021/11/01 05:10:46;;;;;;;30.10;22.95;;;;;;;7.39;80.05;99231.31;4981643;28;20055;-78
2021/11/01 05:13:28;;;;;;;32.28;25.23;;;;;;;7.41;80.30;99233.91;4981984;28;20066;-78
2021/11/01 05:16:06;;;;;;;33.35;26.17;;;;;;;7.47;81.27;99223.34;4971052;28;20105;-79
2021/11/01 05:18:45;;;;;;;35.40;25.75;;;;;;;7.61;81.28;99225.75;4967057;28;20058;-78
2021/11/01 05:23:44;;;;;;;31.90;25.15;;;;;;;7.69;80.42;99234.38;4986815;28;20037;-78
2021/11/01 05:26:16;;;;;;;31.17;25.83;;;;;;;7.75;80.32;99231.66;4986261;28;20097;-78
2021/11/01 05:31:19;;;;;;;31.63;24.27;;;;;;;7.97;80.55;99239.22;4975332;28;20038;-77
2021/11/01 05:36:25;;;;;;;34.35;25.67;;;;;;;8.03;79.13;99244.34;4974899;28;20029;-77
2021/11/01 05:38:50;;;;;;;31.30;23.95;;;;;;;8.10;79.14;99256.50;4975231;28;20050;-77
2021/11/01 05:41:16;;;;;;;30.20;23.42;;;;;;;8.21;79.39;99256.31;4974616;28;20035;-77
2021/11/01 05:43:42;;;;;;;28.73;23.38;;;;;;;8.35;79.18;99257.81;4973920;28;20129;-77
2021/11/01 05:46:07;;;;;;;35.85;26.33;;;;;;;8.52;79.49;99257.56;4973618;28;20457;-78
2021/11/01 05:48:33;;;;;;;32.30;24.85;;;;;;;8.68;78.77;99260.78;4977983;28;20118;-77
2021/11/01 05:50:58;;;;;;;32.80;25.20;;;;;;;8.71;78.34;99257.22;4975730;28;20042;-78
2021/11/01 05:53:27;;;;;;;34.28;27.58;;;;;;;8.80;78.52;99251.75;4971799;28;20039;-79
2021/11/01 05:56:10;;;;;;;36.03;25.85;;;;;;;8.95;78.39;99250.59;4964670;28;20031;-81
2021/11/01 05:58:49;;;;;;;34.53;26.10;;;;;;;9.12;78.15;99252.91;4956429;28;20161;-79
2021/11/01 06:03:47;;;;;;;32.53;24.10;;;;;;;9.21;76.73;99264.09;4984463;28;20045;-79
2021/11/01 06:06:24;;;;;;;34.20;25.10;;;;;;;9.33;77.43;99270.88;4986910;28;20141;-79
2021/11/01 06:14:17;;;;;;;33.03;25.42;;;;;;;9.78;76.35;99272.53;4986334;28;20119;-79
2021/11/01 06:16:42;;;;;;;34.35;26.20;;;;;;;9.93;76.53;99277.44;4975278;28;20050;-79
2021/11/01 06:19:08;;;;;;;33.35;26.75;;;;;;;10.08;75.58;99274.41;4984313;28;20041;-78
2021/11/01 06:21:34;;;;;;;36.95;28.85;;;;;;;10.22;75.68;99275.88;4983614;28;20049;-78
2021/11/01 06:24:02;;;;;;;31.60;26.17;;;;;;;10.27;75.38;99282.81;4965045;28;20039;-79
2021/11/01 06:26:29;;;;;;;35.50;26.75;;;;;;;10.40;75.49;99291.28;4982506;28;20049;-78
2021/11/01 06:29:01;;;;;;;29.40;24.10;;;;;;;10.46;75.42;99301.66;4982987;28;20082;-78
2021/11/01 06:31:30;;;;;;;32.35;25.33;;;;;;;10.55;75.45;99304.97;4973706;28;20058;-79
2021/11/01 06:34:16;;;;;;;33.10;26.20;;;;;;;10.65;75.35;99293.28;4982970;28;20066;-79
2021/11/01 06:44:57;;;;;;;31.55;26.30;;;;;;;11.27;73.90;99305.69;4974525;28;20062;-79
2021/11/01 06:50:17;;;;;;;32.70;26.30;;;;;;;11.52;72.94;99311.09;4983843;28;20055;-79
2021/11/01 06:58:04;;;;;;;33.70;25.85;;;;;;;11.84;70.36;99311.00;4983677;28;20039;-79
2021/11/01 07:22:15;;;;;;;27.55;24.00;;;;;;;12.46;69.43;99336.38;4967529;28;20066;-79
2021/11/01 08:21:56;;;;;;;31.48;23.90;;;;;;;12.62;69.23;99425.88;4980543;28;20075;-77
2021/11/01 08:24:45;;;;;;;27.85;24.02;;;;;;;12.65;69.79;99431.06;4968117;28;20035;-78
2021/11/01 08:27:32;;;;;;;26.40;22.67;;;;;;;12.78;68.95;99442.13;4983669;28;20117;-78
2021/11/01 08:34:08;;;;;;;26.05;22.15;;;;;;;12.81;69.57;99450.84;4976245;28;20417;-79
2021/11/01 08:46:44;;;;;;;30.55;22.25;;;;;;;12.88;69.59;99444.41;4967209;28;20188;-79
2021/11/01 09:05:11;;;;;;;27.77;23.10;;;;;;;13.43;69.00;99451.44;4979493;28;20038;-78
2021/11/01 09:07:59;;;;;;;29.50;23.42;;;;;;;13.40;69.29;99457.72;4967804;28;20039;-79
2021/11/01 09:10:51;;;;;;;25.75;21.40;;;;;;;13.44;69.53;99456.72;4979753;28;20039;-79
2021/11/01 09:19:33;;;;;;;23.30;19.55;;;;;;;13.43;70.18;99452.31;4975874;28;20114;-78
2021/11/01 09:24:38;;;;;;;26.63;20.50;;;;;;;13.43;70.76;99452.31;4962096;28;20047;-78
2021/11/01 09:27:07;;;;;;;26.85;20.88;;;;;;;13.35;71.48;99446.41;4970128;28;20043;-79
2021/11/01 09:29:56;;;;;;;24.45;19.95;;;;;;;13.33;72.11;99450.91;4970415;28;20054;-78
2021/11/01 09:43:04;;;;;;;25.55;18.73;;;;;;;13.54;73.10;99454.59;4974883;28;20105;-79
2021/11/01 09:45:34;;;;;;;22.48;16.92;;;;;;;13.55;72.99;99443.94;4952935;28;20094;-79
2021/11/01 09:48:00;;;;;;;21.55;17.15;;;;;;;13.61;72.76;99449.94;4979328;28;20093;-79
2021/11/01 09:50:25;;;;;;;21.02;17.00;;;;;;;13.72;72.38;99451.28;4980632;28;20030;-79
2021/11/01 09:52:57;;;;;;;21.20;15.93;;;;;;;13.86;72.31;99445.50;4984048;28;20051;-78
2021/11/01 09:59:11;;;;;;;29.25;21.52;;;;;;;13.83;72.61;99448.22;4984483;28;20771;-76
2021/11/01 10:01:00;;;;;;;19.73;16.50;;;;;;;13.84;72.25;99451.75;4983650;28;20109;-75
2021/11/01 10:03:41;;;;;;;21.17;16.75;;;;;;;13.89;71.84;99449.81;4982298;28;20133;-75
2021/11/01 10:06:15;;;;;;;22.45;16.70;;;;;;;13.98;71.95;99454.75;4961987;28;20047;-75
2021/11/01 10:08:49;;;;;;;27.77;20.77;;;;;;;14.02;72.06;99453.75;4961257;28;20031;-75
2021/11/01 10:11:21;;;;;;;34.60;24.08;;;;;;;14.15;71.99;99452.34;4965507;28;20066;-75
2021/11/01 10:13:55;;;;;;;21.30;16.67;;;;;;;14.24;70.92;99451.13;4963377;28;20042;-75
2021/11/01 10:19:27;;;;;;;20.95;15.00;;;;;;;14.17;70.87;99444.31;4965816;28;20073;-75
2021/11/01 10:21:54;;;;;;;28.95;19.02;;;;;;;14.25;71.21;99442.22;4965111;28;20042;-75
2021/11/01 10:24:25;;;;;;;21.65;16.55;;;;;;;14.32;70.66;99459.66;4961659;28;20182;-75
2021/11/01 10:26:51;;;;;;;25.70;19.20;;;;;;;14.43;70.87;99457.44;4965202;28;20065;-75
2021/11/01 10:29:16;;;;;;;22.17;15.73;;;;;;;14.50;70.01;99458.06;4961798;28;20050;-75
2021/11/01 10:31:44;;;;;;;19.80;15.27;;;;;;;14.64;69.44;99460.22;4964666;28;20039;-74
2021/11/01 10:34:11;;;;;;;18.73;15.23;;;;;;;14.62;69.60;99454.97;4961679;28;20143;-75
2021/11/01 10:36:41;;;;;;;18.67;15.27;;;;;;;14.57;69.35;99456.09;4964703;28;20027;-75
2021/11/01 10:39:10;;;;;;;20.40;15.55;;;;;;;14.63;69.54;99459.34;4961771;28;20134;-75
2021/11/01 10:44:50;;;;;;;18.27;14.80;;;;;;;14.77;68.75;99453.47;4964989;28;20054;-75
2021/11/01 11:14:40;;;;;;;22.83;18.35;;;;;;;14.99;69.10;99469.41;4964466;28;20030;-75
2021/11/01 11:17:21;;;;;;;17.75;14.25;;;;;;;14.88;70.06;99468.97;4971127;28;20039;-75
2021/11/01 11:20:17;;;;;;;20.77;14.88;;;;;;;14.88;70.90;99463.66;4968392;28;20520;-75
2021/11/01 11:25:39;;;;;;;22.10;17.10;;;;;;;14.85;71.79;99474.41;4971539;28;20098;-75
2021/11/01 11:28:15;;;;;;;21.00;17.17;;;;;;;14.92;71.97;99469.72;4971355;28;20047;-75
2021/11/01 11:31:03;;;;;;;21.67;17.35;;;;;;;15.01;71.94;99470.22;4971145;28;20042;-75
2021/11/01 11:48:16;;;;;;;21.40;16.73;;;;;;;14.99;73.15;99458.78;4965911;28;20114;-74
2021/11/01 11:50:43;;;;;;;22.10;17.83;;;;;;;15.02;72.79;99447.19;4964836;28;20173;-75
2021/11/01 11:53:10;;;;;;;20.85;16.42;;;;;;;15.04;72.20;99453.28;4964033;28;20464;-75
2021/11/01 11:55:36;;;;;;;19.70;16.40;;;;;;;15.07;72.03;99447.84;4960965;28;20036;-75
2021/11/01 11:58:04;;;;;;;21.63;17.60;;;;;;;14.88;72.53;99453.03;4963586;28;20050;-75
2021/11/01 12:00:33;;;;;;;25.25;19.77;;;;;;;14.78;72.85;99452.56;4967048;28;20165;-74
2021/11/01 12:03:14;;;;;;;19.35;15.15;;;;;;;14.75;72.87;99452.69;4967782;28;20101;-75
2021/11/01 12:05:47;;;;;;;17.55;14.88;;;;;;;14.68;72.94;99456.50;4964341;28;20038;-75
2021/11/01 12:08:25;;;;;;;16.58;13.90;;;;;;;14.68;72.81;99462.69;4964800;28;20509;-75
2021/11/01 12:11:14;;;;;;;17.13;14.40;;;;;;;14.72;72.72;99449.28;4964601;28;20043;-75
2021/11/01 12:19:12;;;;;;;18.35;14.38;;;;;;;14.62;73.89;99452.31;4965900;28;20046;-75
2021/11/01 12:21:41;;;;;;;18.13;14.98;;;;;;;14.56;73.97;99443.72;4963885;28;20133;-75
2021/11/01 12:24:11;;;;;;;18.77;15.18;;;;;;;14.54;74.34;99445.56;4966007;28;20050;-74
2021/11/01 12:26:39;;;;;;;18.42;15.27;;;;;;;14.50;74.52;99451.91;4963151;28;20043;-74
2021/11/01 12:29:09;;;;;;;18.08;14.10;;;;;;;14.48;74.38;99447.50;4966640;28;20050;-75
2021/11/01 12:31:34;;;;;;;19.00;15.07;;;;;;;14.40;74.43;99448.75;4964247;28;20043;-75
2021/11/01 12:34:22;;;;;;;18.50;15.20;;;;;;;14.41;74.99;99437.22;4965976;28;20050;-75
2021/11/01 12:37:17;;;;;;;19.77;15.45;;;;;;;14.45;75.30;99444.97;4964483;28;20054;-75
2021/11/01 12:39:49;;;;;;;17.15;14.43;;;;;;;14.48;75.12;99444.84;4963916;28;20043;-75
2021/11/01 12:42:35;;;;;;;20.52;15.40;;;;;;;14.34;75.75;99447.19;4965534;28;20031;-75
2021/11/01 12:58:34;;;;;;;18.23;15.00;;;;;;;14.24;76.84;99437.84;4964596;28;20493;-75
2021/11/01 13:01:07;;;;;;;20.88;14.75;;;;;;;14.28;76.87;99436.81;4968632;28;20138;-75
2021/11/01 13:03:33;;;;;;;20.55;15.30;;;;;;;14.31;77.06;99434.03;4964957;28;20039;-75
2021/11/01 13:06:08;;;;;;;20.05;15.18;;;;;;;14.30;77.31;99434.94;4966939;28;20038;-75
2021/11/01 13:08:46;;;;;;;19.95;15.98;;;;;;;14.30;77.83;99424.34;4973152;28;20045;-75
2021/11/01 13:11:29;;;;;;;19.73;15.77;;;;;;;14.35;77.57;99427.69;4965649;28;20043;-75
2021/11/01 13:19:17;;;;;;;18.67;14.32;;;;;;;14.46;77.07;99429.91;4956179;28;20051;-75
2021/11/01 13:21:56;;;;;;;19.87;15.03;;;;;;;14.44;77.32;99427.31;4964745;28;20042;-75
2021/11/01 13:27:52;;;;;;;18.55;13.65;;;;;;;14.37;78.37;99425.84;4968124;28;20041;-75
2021/11/01 13:38:51;;;;;;;14.63;12.63;;;;;;;14.38;78.64;99424.94;4971832;28;20096;-75
2021/11/01 13:41:26;;;;;;;15.95;12.95;;;;;;;14.35;78.54;99422.38;4973432;28;20078;-76
2021/11/01 13:43:51;;;;;;;16.55;12.32;;;;;;;14.43;78.34;99420.28;4963725;28;20106;-75
2021/11/01 13:46:26;;;;;;;15.60;12.60;;;;;;;14.46;78.85;99414.88;4970830;28;20122;-75
2021/11/01 13:48:56;;;;;;;16.20;12.35;;;;;;;14.48;78.81;99413.00;4966867;28;20042;-75
2021/11/01 13:51:22;;;;;;;15.60;12.38;;;;;;;14.54;78.43;99419.00;4964242;28;20050;-75
2021/11/01 13:54:08;;;;;;;14.40;12.75;;;;;;;14.52;78.36;99423.50;4963543;28;20035;-74
2021/11/01 13:56:45;;;;;;;14.60;11.80;;;;;;;14.50;78.42;99417.41;4972856;28;20030;-74
2021/11/01 13:59:37;;;;;;;14.77;11.35;;;;;;;14.46;78.20;99414.88;4979314;28;20041;-75
2021/11/01 14:16:16;;;;;;;8.30;5.30;;;;;;;13.48;75.45;99449.50;4967363;28;20114;-75
2021/11/01 14:29:12;;;;;;;6.40;3.20;;;;;;;12.99;73.67;99448.50;4962554;28;20067;-74
2021/11/01 14:59:31;;;;;;;6.47;2.85;;;;;;;11.92;79.65;99465.91;4964985;28;20038;-74
2021/11/01 15:12:58;;;;;;;5.70;2.75;;;;;;;11.76;80.95;99474.28;4976569;28;20117;-74
2021/11/01 15:23:03;;;;;;;7.68;3.67;;;;;;;11.64;82.83;99474.59;4964201;28;20051;-74
2021/11/01 16:19:39;;;;;;;4.88;3.20;;;;;;;11.23;86.86;99481.81;4969245;28;20042;-78
2021/11/01 16:22:06;;;;;;;4.85;2.72;;;;;;;11.24;86.57;99477.41;4975297;28;20058;-77
2021/11/01 16:24:32;;;;;;;6.78;3.55;;;;;;;11.29;86.52;99486.09;4966665;28;20046;-77
2021/11/01 16:26:59;;;;;;;6.93;3.88;;;;;;;11.31;86.95;99471.94;4970866;28;20429;-77
2021/11/01 16:29:36;;;;;;;6.40;4.45;;;;;;;11.34;86.93;99470.97;4967446;28;20027;-77
2021/11/01 16:32:06;;;;;;;5.60;3.53;;;;;;;11.36;86.96;99475.31;4965468;28;20035;-77
2021/11/01 16:34:33;;;;;;;7.10;4.80;;;;;;;11.40;86.81;99470.84;4969336;28;20043;-77
2021/11/01 16:39:51;;;;;;;8.18;4.57;;;;;;;11.43;86.29;99473.41;4970848;28;20670;-77
2021/11/01 16:42:28;;;;;;;8.30;5.40;;;;;;;11.36;86.78;99475.31;4964455;28;20042;-77
2021/11/01 16:44:55;;;;;;;5.55;3.78;;;;;;;11.37;86.59;99479.72;4969255;28;20035;-77
2021/11/01 16:47:20;;;;;;;8.85;4.50;;;;;;;11.38;86.64;99470.00;4968676;28;20039;-78
2021/11/01 16:49:49;;;;;;;7.80;4.63;;;;;;;11.34;86.59;99463.94;4971615;28;20034;-78
2021/11/01 16:52:17;;;;;;;5.78;3.67;;;;;;;11.33;86.58;99472.75;4969935;28;20019;-77
2021/11/01 16:54:50;;;;;;;6.28;3.53;;;;;;;11.26;86.62;99471.19;4968112;28;20386;-77
2021/11/01 16:57:20;;;;;;;7.78;4.07;;;;;;;11.25;86.63;99468.59;4967054;28;20043;-76
2021/11/01 17:05:07;;;;;;;7.82;4.63;;;;;;;11.19;86.51;99470.47;4932365;28;20494;-76
2021/11/01 17:24:04;;;;;;;8.10;4.72;;;;;;;11.08;87.26;99498.06;4961237;28;20085;-78
2021/11/01 18:38:54;;;;;;;7.80;5.20;;;;;;;11.13;86.30;99489.13;4945053;28;20093;-76
2021/11/01 18:52:10;;;;;;;10.77;5.38;;;;;;;11.16;86.42;99480.25;4957075;28;20083;-78
2021/11/01 18:54:39;;;;;;;9.88;5.03;;;;;;;11.16;85.71;99475.84;4954390;28;20038;-78
2021/11/01 18:57:06;;;;;;;10.40;4.93;;;;;;;11.12;85.71;99468.03;4968651;28;20039;-77
2021/11/01 18:59:35;;;;;;;7.82;4.97;;;;;;;11.10;86.12;99461.91;4956857;28;20066;-78
2021/11/01 19:04:40;;;;;;;6.03;3.70;;;;;;;11.02;85.85;99462.13;4950951;28;20489;-78
2021/11/01 19:07:12;;;;;;;7.43;3.92;;;;;;;11.04;85.09;99459.44;4966762;28;20482;-77
2021/11/01 19:18:35;;;;;;;5.65;3.28;;;;;;;10.88;85.70;99480.09;4942645;28;20035;-76
2021/11/01 20:05:21;;;;;;;5.07;3.42;;;;;;;10.81;85.90;99468.78;4949792;28;20038;-76
2021/11/01 20:08:17;;;;;;;7.80;3.63;;;;;;;10.82;85.56;99462.63;4950134;28;20094;-76
2021/11/01 20:11:06;;;;;;;5.82;3.53;;;;;;;10.81;85.28;99463.50;4946613;28;20165;-77
2021/11/01 20:13:53;;;;;;;6.00;2.83;;;;;;;10.84;85.39;99466.06;4949785;28;20050;-76
2021/11/01 20:16:55;;;;;;;9.07;3.30;;;;;;;10.80;85.02;99456.50;4967020;28;20736;-76
2021/11/01 21:26:21;;;;;;;8.48;5.30;;;;;;;10.45;86.60;99446.78;4948191;28;20050;-79
2021/11/01 21:28:51;;;;;;;7.75;4.97;;;;;;;10.49;86.58;99449.31;4964283;28;20038;-79
2021/11/01 21:31:17;;;;;;;10.48;5.75;;;;;;;10.59;86.37;99449.97;4934169;28;20039;-79
2021/11/01 21:33:45;;;;;;;9.50;5.93;;;;;;;10.62;85.55;99452.53;4947658;28;20093;-79
2021/11/01 21:36:13;;;;;;;8.48;5.68;;;;;;;10.60;85.28;99445.56;4967285;28;20604;-79
2021/11/01 21:38:38;;;;;;;8.95;5.00;;;;;;;10.61;85.93;99447.28;4948334;28;20410;-79
2021/11/01 21:41:04;;;;;;;8.05;5.78;;;;;;;10.63;85.40;99442.84;4965726;28;20043;-79
2021/11/01 21:43:29;;;;;;;9.70;6.00;;;;;;;10.64;85.63;99444.59;4965984;28;20039;-79
2021/11/01 21:45:55;;;;;;;10.55;6.30;;;;;;;10.47;85.96;99445.81;4965958;28;20798;-79
2021/11/01 21:48:20;;;;;;;9.60;6.20;;;;;;;10.47;86.14;99443.19;4949537;28;20425;-79
2021/11/01 21:50:47;;;;;;;8.48;5.32;;;;;;;10.50;85.82;99435.19;4965904;28;20110;-79
2021/11/01 21:53:15;;;;;;;9.68;5.28;;;;;;;10.55;85.99;99439.50;4966901;28;20031;-79